sensor_id;sensor_type;location;lat;lon;timestamp;temperature;humidity
5055;DHT22;13829;48.990;8.346;2024-01-30T00:00:27;2.20;99.90
5055;DHT22;13829;48.990;8.346;2024-01-30T00:02:54;2.20;99.90
5055;DHT22;13829;48.990;8.346;2024-01-30T00:05:22;2.30;99.90
5055;DHT22;13829;48.990;8.346;2024-01-30T00:07:49;2.30;99.90
5055;DHT22;13829;48.990;8.346;2024-01-30T00:10:16;2.30;99.90
5055;DHT22;13829;48.990;8.346;2024-01-30T00:12:43;2.30;99.90
5055;DHT22;13829;48.990;8.346;2024-01-30T00:15:10;2.30;99.90
5055;DHT22;13829;48.990;8.346;2024-01-30T00:17:37;2.40;99.90
5055;DHT22;13829;48.990;8.346;2024-01-30T00:20:05;2.40;99.90
5055;DHT22;13829;48.990;8.346;2024-01-30T00:22:35;2.30;99.90
5055;DHT22;13829;48.990;8.346;2024-01-30T00:25:03;2.20;99.90
5055;DHT22;13829;48.990;8.346;2024-01-30T00:27:30;2.10;99.90
5055;DHT22;13829;48.990;8.346;2024-01-30T00:29:57;2.10;99.90
5055;DHT22;13829;48.990;8.346;2024-01-30T00:32:24;2.10;99.90
5055;DHT22;13829;48.990;8.346;2024-01-30T00:34:51;2.10;99.90
5055;DHT22;13829;48.990;8.346;2024-01-30T00:37:18;2.00;99.90
5055;DHT22;13829;48.990;8.346;2024-01-30T00:39:46;2.00;99.90
5055;DHT22;13829;48.990;8.346;2024-01-30T00:42:13;2.00;99.90
5055;DHT22;13829;48.990;8.346;2024-01-30T00:44:40;2.00;99.90
5055;DHT22;13829;48.990;8.346;2024-01-30T00:47:07;2.00;99.90
5055;DHT22;13829;48.990;8.346;2024-01-30T00:49:34;2.00;99.90
5055;DHT22;13829;48.990;8.346;2024-01-30T00:52:01;1.90;99.90
5055;DHT22;13829;48.990;8.346;2024-01-30T00:54:28;1.90;99.90
5055;DHT22;13829;48.990;8.346;2024-01-30T00:56:57;1.90;99.90
5055;DHT22;13829;48.990;8.346;2024-01-30T00:59:24;1.90;99.90
5055;DHT22;13829;48.990;8.346;2024-01-30T01:01:51;1.90;99.90
5055;DHT22;13829;48.990;8.346;2024-01-30T01:04:18;1.90;99.90
5055;DHT22;13829;48.990;8.346;2024-01-30T01:06:46;1.90;99.90
5055;DHT22;13829;48.990;8.346;2024-01-30T01:09:13;2.00;99.90
5055;DHT22;13829;48.990;8.346;2024-01-30T01:11:40;2.00;99.90
5055;DHT22;13829;48.990;8.346;2024-01-30T01:14:09;2.00;99.90
5055;DHT22;13829;48.990;8.346;2024-01-30T01:16:36;2.00;99.90
5055;DHT22;13829;48.990;8.346;2024-01-30T01:19:03;2.00;99.90
5055;DHT22;13829;48.990;8.346;2024-01-30T01:21:30;1.90;99.90
5055;DHT22;13829;48.990;8.346;2024-01-30T01:23:56;1.90;99.90
5055;DHT22;13829;48.990;8.346;2024-01-30T01:26:23;1.90;99.90
5055;DHT22;13829;48.990;8.346;2024-01-30T01:28:50;2.00;99.90
5055;DHT22;13829;48.990;8.346;2024-01-30T01:31:19;2.10;99.90
5055;DHT22;13829;48.990;8.346;2024-01-30T01:33:50;2.10;99.90
5055;DHT22;13829;48.990;8.346;2024-01-30T01:36:17;2.10;99.90
5055;DHT22;13829;48.990;8.346;2024-01-30T01:38:44;2.10;99.90
5055;DHT22;13829;48.990;8.346;2024-01-30T01:41:10;2.10;99.90
5055;DHT22;13829;48.990;8.346;2024-01-30T01:43:37;2.10;99.90
5055;DHT22;13829;48.990;8.346;2024-01-30T01:46:04;2.00;99.90
5055;DHT22;13829;48.990;8.346;2024-01-30T01:48:33;2.00;99.90
5055;DHT22;13829;48.990;8.346;2024-01-30T01:51:01;2.00;99.90
5055;DHT22;13829;48.990;8.346;2024-01-30T01:53:29;1.90;99.90
5055;DHT22;13829;48.990;8.346;2024-01-30T01:55:56;1.90;99.90
5055;DHT22;13829;48.990;8.346;2024-01-30T01:58:27;1.90;99.90
5055;DHT22;13829;48.990;8.346;2024-01-30T02:00:56;1.80;99.90
5055;DHT22;13829;48.990;8.346;2024-01-30T02:03:24;1.70;99.90
5055;DHT22;13829;48.990;8.346;2024-01-30T02:05:52;1.60;99.90
5055;DHT22;13829;48.990;8.346;2024-01-30T02:08:21;1.50;99.90
5055;DHT22;13829;48.990;8.346;2024-01-30T02:10:48;1.50;99.90
5055;DHT22;13829;48.990;8.346;2024-01-30T02:13:16;1.80;99.90
5055;DHT22;13829;48.990;8.346;2024-01-30T02:15:42;1.90;99.90
5055;DHT22;13829;48.990;8.346;2024-01-30T02:18:09;1.90;99.90
5055;DHT22;13829;48.990;8.346;2024-01-30T02:20:37;1.70;99.90
5055;DHT22;13829;48.990;8.346;2024-01-30T02:23:07;1.60;99.90
5055;DHT22;13829;48.990;8.346;2024-01-30T02:25:39;1.70;99.90
5055;DHT22;13829;48.990;8.346;2024-01-30T02:28:09;1.70;99.90
5055;DHT22;13829;48.990;8.346;2024-01-30T02:30:37;1.70;99.90
5055;DHT22;13829;48.990;8.346;2024-01-30T02:33:04;1.60;99.90
5055;DHT22;13829;48.990;8.346;2024-01-30T02:35:31;1.60;99.90
5055;DHT22;13829;48.990;8.346;2024-01-30T02:37:59;1.60;99.90
5055;DHT22;13829;48.990;8.346;2024-01-30T02:40:27;1.70;99.90
5055;DHT22;13829;48.990;8.346;2024-01-30T02:42:54;1.60;99.90
5055;DHT22;13829;48.990;8.346;2024-01-30T02:45:21;1.50;99.90
5055;DHT22;13829;48.990;8.346;2024-01-30T02:47:48;1.60;99.90
5055;DHT22;13829;48.990;8.346;2024-01-30T02:50:15;1.70;99.90
5055;DHT22;13829;48.990;8.346;2024-01-30T02:52:42;1.70;99.90
5055;DHT22;13829;48.990;8.346;2024-01-30T02:55:10;1.70;99.90
5055;DHT22;13829;48.990;8.346;2024-01-30T02:57:39;1.70;99.90
5055;DHT22;13829;48.990;8.346;2024-01-30T03:00:06;1.60;99.90
5055;DHT22;13829;48.990;8.346;2024-01-30T03:02:35;1.60;99.90
5055;DHT22;13829;48.990;8.346;2024-01-30T03:05:02;1.60;99.90
5055;DHT22;13829;48.990;8.346;2024-01-30T03:07:30;1.60;99.90
5055;DHT22;13829;48.990;8.346;2024-01-30T03:09:57;1.50;99.90
5055;DHT22;13829;48.990;8.346;2024-01-30T03:12:24;1.50;99.90
5055;DHT22;13829;48.990;8.346;2024-01-30T03:14:52;1.50;99.90
5055;DHT22;13829;48.990;8.346;2024-01-30T03:17:19;1.50;99.90
5055;DHT22;13829;48.990;8.346;2024-01-30T03:19:46;1.50;99.90
5055;DHT22;13829;48.990;8.346;2024-01-30T03:22:13;1.50;99.90
5055;DHT22;13829;48.990;8.346;2024-01-30T03:24:39;1.40;99.90
5055;DHT22;13829;48.990;8.346;2024-01-30T03:27:07;1.50;99.90
5055;DHT22;13829;48.990;8.346;2024-01-30T03:29:34;1.50;99.90
5055;DHT22;13829;48.990;8.346;2024-01-30T03:32:04;1.40;99.90
5055;DHT22;13829;48.990;8.346;2024-01-30T03:34:31;1.30;99.90
5055;DHT22;13829;48.990;8.346;2024-01-30T03:36:58;1.30;99.90
5055;DHT22;13829;48.990;8.346;2024-01-30T03:39:25;1.30;99.90
5055;DHT22;13829;48.990;8.346;2024-01-30T03:41:52;1.30;99.90
5055;DHT22;13829;48.990;8.346;2024-01-30T03:44:18;1.30;99.90
5055;DHT22;13829;48.990;8.346;2024-01-30T03:46:46;1.40;99.90
5055;DHT22;13829;48.990;8.346;2024-01-30T03:49:14;1.30;99.90
5055;DHT22;13829;48.990;8.346;2024-01-30T03:51:41;1.30;99.90
5055;DHT22;13829;48.990;8.346;2024-01-30T03:54:08;1.30;99.90
5055;DHT22;13829;48.990;8.346;2024-01-30T03:56:35;1.40;99.90
5055;DHT22;13829;48.990;8.346;2024-01-30T03:59:02;1.40;99.90
5055;DHT22;13829;48.990;8.346;2024-01-30T04:01:29;1.40;99.90
5055;DHT22;13829;48.990;8.346;2024-01-30T04:03:56;1.40;99.90
5055;DHT22;13829;48.990;8.346;2024-01-30T04:06:24;1.40;99.90
5055;DHT22;13829;48.990;8.346;2024-01-30T04:08:51;1.40;99.90
5055;DHT22;13829;48.990;8.346;2024-01-30T04:11:18;1.30;99.90
5055;DHT22;13829;48.990;8.346;2024-01-30T04:13:46;1.30;99.90
5055;DHT22;13829;48.990;8.346;2024-01-30T04:16:19;1.40;99.90
5055;DHT22;13829;48.990;8.346;2024-01-30T04:18:47;1.40;99.90
5055;DHT22;13829;48.990;8.346;2024-01-30T04:21:14;1.40;99.90
5055;DHT22;13829;48.990;8.346;2024-01-30T04:23:43;1.30;99.90
5055;DHT22;13829;48.990;8.346;2024-01-30T04:26:10;1.30;99.90
5055;DHT22;13829;48.990;8.346;2024-01-30T04:28:37;1.30;99.90
5055;DHT22;13829;48.990;8.346;2024-01-30T04:31:04;1.40;99.90
5055;DHT22;13829;48.990;8.346;2024-01-30T04:33:31;1.40;99.90
5055;DHT22;13829;48.990;8.346;2024-01-30T04:35:57;1.40;99.90
5055;DHT22;13829;48.990;8.346;2024-01-30T04:38:24;1.40;99.90
5055;DHT22;13829;48.990;8.346;2024-01-30T04:40:53;1.40;99.90
5055;DHT22;13829;48.990;8.346;2024-01-30T04:43:20;1.40;99.90
5055;DHT22;13829;48.990;8.346;2024-01-30T04:45:47;1.30;99.90
5055;DHT22;13829;48.990;8.346;2024-01-30T04:48:14;1.30;99.90
5055;DHT22;13829;48.990;8.346;2024-01-30T04:50:41;1.30;99.90
5055;DHT22;13829;48.990;8.346;2024-01-30T04:53:08;1.30;99.90
5055;DHT22;13829;48.990;8.346;2024-01-30T04:55:35;1.30;99.90
5055;DHT22;13829;48.990;8.346;2024-01-30T04:58:03;1.30;99.90
5055;DHT22;13829;48.990;8.346;2024-01-30T05:00:30;1.30;99.90
5055;DHT22;13829;48.990;8.346;2024-01-30T05:02:57;1.30;99.90
5055;DHT22;13829;48.990;8.346;2024-01-30T05:05:24;1.30;99.90
5055;DHT22;13829;48.990;8.346;2024-01-30T05:07:51;1.30;99.90
5055;DHT22;13829;48.990;8.346;2024-01-30T05:10:18;1.40;99.90
5055;DHT22;13829;48.990;8.346;2024-01-30T05:12:45;1.40;99.90
5055;DHT22;13829;48.990;8.346;2024-01-30T05:15:13;1.30;99.90
5055;DHT22;13829;48.990;8.346;2024-01-30T05:17:41;1.30;99.90
5055;DHT22;13829;48.990;8.346;2024-01-30T05:20:09;1.30;99.90
5055;DHT22;13829;48.990;8.346;2024-01-30T05:22:37;1.30;99.90
5055;DHT22;13829;48.990;8.346;2024-01-30T05:25:10;1.20;99.90
5055;DHT22;13829;48.990;8.346;2024-01-30T05:27:37;1.10;99.90
5055;DHT22;13829;48.990;8.346;2024-01-30T05:30:05;1.10;99.90
5055;DHT22;13829;48.990;8.346;2024-01-30T05:32:34;1.10;99.90
5055;DHT22;13829;48.990;8.346;2024-01-30T05:35:01;1.20;99.90
5055;DHT22;13829;48.990;8.346;2024-01-30T05:37:29;1.30;99.90
5055;DHT22;13829;48.990;8.346;2024-01-30T05:39:56;1.40;99.90
5055;DHT22;13829;48.990;8.346;2024-01-30T05:42:23;1.50;99.90
5055;DHT22;13829;48.990;8.346;2024-01-30T05:44:50;1.40;99.90
5055;DHT22;13829;48.990;8.346;2024-01-30T05:47:17;1.30;99.90
5055;DHT22;13829;48.990;8.346;2024-01-30T05:49:45;1.30;99.90
5055;DHT22;13829;48.990;8.346;2024-01-30T05:52:12;1.30;99.90
5055;DHT22;13829;48.990;8.346;2024-01-30T05:54:40;1.30;99.90
5055;DHT22;13829;48.990;8.346;2024-01-30T05:57:07;1.20;99.90
5055;DHT22;13829;48.990;8.346;2024-01-30T05:59:34;1.10;99.90
5055;DHT22;13829;48.990;8.346;2024-01-30T06:02:02;1.00;99.90
5055;DHT22;13829;48.990;8.346;2024-01-30T06:04:30;1.00;99.90
5055;DHT22;13829;48.990;8.346;2024-01-30T06:06:58;1.10;99.90
5055;DHT22;13829;48.990;8.346;2024-01-30T06:09:27;1.00;99.90
5055;DHT22;13829;48.990;8.346;2024-01-30T06:11:54;1.10;99.90
5055;DHT22;13829;48.990;8.346;2024-01-30T06:14:21;1.10;99.90
5055;DHT22;13829;48.990;8.346;2024-01-30T06:16:49;1.00;99.90
5055;DHT22;13829;48.990;8.346;2024-01-30T06:19:16;1.00;99.90
5055;DHT22;13829;48.990;8.346;2024-01-30T06:21:43;1.00;99.90
5055;DHT22;13829;48.990;8.346;2024-01-30T06:24:11;1.00;99.90
5055;DHT22;13829;48.990;8.346;2024-01-30T06:26:38;1.00;99.90
5055;DHT22;13829;48.990;8.346;2024-01-30T06:29:05;1.10;99.90
5055;DHT22;13829;48.990;8.346;2024-01-30T06:31:33;1.10;99.90
5055;DHT22;13829;48.990;8.346;2024-01-30T06:34:00;1.10;99.90
5055;DHT22;13829;48.990;8.346;2024-01-30T06:36:26;1.20;99.90
5055;DHT22;13829;48.990;8.346;2024-01-30T06:38:53;1.20;99.90
5055;DHT22;13829;48.990;8.346;2024-01-30T06:41:21;1.20;99.90
5055;DHT22;13829;48.990;8.346;2024-01-30T06:43:49;1.30;99.90
5055;DHT22;13829;48.990;8.346;2024-01-30T06:46:16;1.40;99.90
5055;DHT22;13829;48.990;8.346;2024-01-30T06:48:43;1.40;99.90
5055;DHT22;13829;48.990;8.346;2024-01-30T06:51:10;1.30;99.90
5055;DHT22;13829;48.990;8.346;2024-01-30T06:53:37;1.10;99.90
5055;DHT22;13829;48.990;8.346;2024-01-30T06:56:05;1.10;99.90
5055;DHT22;13829;48.990;8.346;2024-01-30T06:58:34;1.20;99.90
5055;DHT22;13829;48.990;8.346;2024-01-30T07:01:01;1.30;99.90
5055;DHT22;13829;48.990;8.346;2024-01-30T07:03:28;1.40;99.90
5055;DHT22;13829;48.990;8.346;2024-01-30T07:05:58;1.40;99.90
5055;DHT22;13829;48.990;8.346;2024-01-30T07:08:25;1.40;99.90
5055;DHT22;13829;48.990;8.346;2024-01-30T07:10:52;1.40;99.90
5055;DHT22;13829;48.990;8.346;2024-01-30T07:13:20;1.40;99.90
5055;DHT22;13829;48.990;8.346;2024-01-30T07:15:48;1.30;99.90
5055;DHT22;13829;48.990;8.346;2024-01-30T07:18:15;1.30;99.90
5055;DHT22;13829;48.990;8.346;2024-01-30T07:20:42;1.40;99.90
5055;DHT22;13829;48.990;8.346;2024-01-30T07:23:12;1.40;99.90
5055;DHT22;13829;48.990;8.346;2024-01-30T07:25:41;1.50;99.90
5055;DHT22;13829;48.990;8.346;2024-01-30T07:28:08;1.60;99.90
5055;DHT22;13829;48.990;8.346;2024-01-30T07:30:36;1.60;99.90
5055;DHT22;13829;48.990;8.346;2024-01-30T07:33:05;1.70;99.90
5055;DHT22;13829;48.990;8.346;2024-01-30T07:35:31;1.80;99.90
5055;DHT22;13829;48.990;8.346;2024-01-30T07:37:58;1.80;99.90
5055;DHT22;13829;48.990;8.346;2024-01-30T07:40:25;1.90;99.90
5055;DHT22;13829;48.990;8.346;2024-01-30T07:42:53;2.00;99.90
5055;DHT22;13829;48.990;8.346;2024-01-30T07:45:20;2.00;99.90
5055;DHT22;13829;48.990;8.346;2024-01-30T07:47:49;2.20;99.90
5055;DHT22;13829;48.990;8.346;2024-01-30T07:50:18;2.50;99.90
5055;DHT22;13829;48.990;8.346;2024-01-30T07:52:45;2.70;99.90
5055;DHT22;13829;48.990;8.346;2024-01-30T07:55:14;3.20;99.90
5055;DHT22;13829;48.990;8.346;2024-01-30T07:57:41;3.60;99.90
5055;DHT22;13829;48.990;8.346;2024-01-30T08:00:09;4.00;99.90
5055;DHT22;13829;48.990;8.346;2024-01-30T08:02:36;4.20;99.90
5055;DHT22;13829;48.990;8.346;2024-01-30T08:05:03;4.10;99.90
5055;DHT22;13829;48.990;8.346;2024-01-30T08:07:32;4.00;99.90
5055;DHT22;13829;48.990;8.346;2024-01-30T08:09:59;3.80;99.90
5055;DHT22;13829;48.990;8.346;2024-01-30T08:12:26;3.80;99.90
5055;DHT22;13829;48.990;8.346;2024-01-30T08:14:53;3.90;99.90
5055;DHT22;13829;48.990;8.346;2024-01-30T08:17:20;3.90;99.90
5055;DHT22;13829;48.990;8.346;2024-01-30T08:19:47;4.10;99.90
5055;DHT22;13829;48.990;8.346;2024-01-30T08:22:14;4.10;99.90
5055;DHT22;13829;48.990;8.346;2024-01-30T08:24:42;4.20;99.90
5055;DHT22;13829;48.990;8.346;2024-01-30T08:27:09;4.30;99.90
5055;DHT22;13829;48.990;8.346;2024-01-30T08:29:37;4.20;99.90
5055;DHT22;13829;48.990;8.346;2024-01-30T08:32:05;4.30;99.90
5055;DHT22;13829;48.990;8.346;2024-01-30T08:34:33;4.50;99.90
5055;DHT22;13829;48.990;8.346;2024-01-30T08:37:00;4.50;99.90
5055;DHT22;13829;48.990;8.346;2024-01-30T08:39:26;4.50;99.90
5055;DHT22;13829;48.990;8.346;2024-01-30T08:41:56;4.70;99.90
5055;DHT22;13829;48.990;8.346;2024-01-30T08:44:23;4.80;99.90
5055;DHT22;13829;48.990;8.346;2024-01-30T08:46:50;4.90;99.90
5055;DHT22;13829;48.990;8.346;2024-01-30T08:49:17;4.80;99.90
5055;DHT22;13829;48.990;8.346;2024-01-30T08:51:44;4.90;99.90
5055;DHT22;13829;48.990;8.346;2024-01-30T08:54:11;4.90;99.90
5055;DHT22;13829;48.990;8.346;2024-01-30T08:56:38;4.90;99.90
5055;DHT22;13829;48.990;8.346;2024-01-30T08:59:06;5.10;99.90
5055;DHT22;13829;48.990;8.346;2024-01-30T09:01:34;5.10;99.90
5055;DHT22;13829;48.990;8.346;2024-01-30T09:04:01;5.10;99.90
5055;DHT22;13829;48.990;8.346;2024-01-30T09:06:28;5.10;99.90
5055;DHT22;13829;48.990;8.346;2024-01-30T09:08:55;5.20;99.90
5055;DHT22;13829;48.990;8.346;2024-01-30T09:11:23;5.30;99.90
5055;DHT22;13829;48.990;8.346;2024-01-30T09:13:50;5.40;99.90
5055;DHT22;13829;48.990;8.346;2024-01-30T09:16:18;5.40;99.90
5055;DHT22;13829;48.990;8.346;2024-01-30T09:18:45;5.40;99.90
5055;DHT22;13829;48.990;8.346;2024-01-30T09:21:12;5.50;99.90
5055;DHT22;13829;48.990;8.346;2024-01-30T09:23:39;5.50;99.90
5055;DHT22;13829;48.990;8.346;2024-01-30T09:26:06;5.60;99.90
5055;DHT22;13829;48.990;8.346;2024-01-30T09:28:33;5.80;99.90
5055;DHT22;13829;48.990;8.346;2024-01-30T09:31:00;6.00;99.90
5055;DHT22;13829;48.990;8.346;2024-01-30T09:33:28;6.10;99.90
5055;DHT22;13829;48.990;8.346;2024-01-30T09:35:55;6.30;99.90
5055;DHT22;13829;48.990;8.346;2024-01-30T09:38:22;6.40;99.90
5055;DHT22;13829;48.990;8.346;2024-01-30T09:40:54;6.60;99.90
5055;DHT22;13829;48.990;8.346;2024-01-30T09:43:22;6.70;99.90
5055;DHT22;13829;48.990;8.346;2024-01-30T09:45:50;6.80;99.90
5055;DHT22;13829;48.990;8.346;2024-01-30T09:48:18;6.90;99.90
5055;DHT22;13829;48.990;8.346;2024-01-30T09:50:47;7.00;99.90
5055;DHT22;13829;48.990;8.346;2024-01-30T09:53:14;6.90;99.90
5055;DHT22;13829;48.990;8.346;2024-01-30T09:55:43;7.00;99.90
5055;DHT22;13829;48.990;8.346;2024-01-30T09:58:12;7.20;99.90
5055;DHT22;13829;48.990;8.346;2024-01-30T10:00:39;7.30;99.90
5055;DHT22;13829;48.990;8.346;2024-01-30T10:03:06;7.20;99.90
5055;DHT22;13829;48.990;8.346;2024-01-30T10:05:33;7.40;99.90
5055;DHT22;13829;48.990;8.346;2024-01-30T10:08:06;7.40;99.90
5055;DHT22;13829;48.990;8.346;2024-01-30T10:10:34;7.50;99.90
5055;DHT22;13829;48.990;8.346;2024-01-30T10:13:01;7.50;99.90
5055;DHT22;13829;48.990;8.346;2024-01-30T10:15:28;7.50;99.90
5055;DHT22;13829;48.990;8.346;2024-01-30T10:17:55;7.70;99.90
5055;DHT22;13829;48.990;8.346;2024-01-30T10:20:24;7.80;99.90
5055;DHT22;13829;48.990;8.346;2024-01-30T10:22:51;8.00;99.90
5055;DHT22;13829;48.990;8.346;2024-01-30T10:25:21;8.10;99.90
5055;DHT22;13829;48.990;8.346;2024-01-30T10:27:52;8.10;99.90
5055;DHT22;13829;48.990;8.346;2024-01-30T10:30:20;8.00;99.90
5055;DHT22;13829;48.990;8.346;2024-01-30T10:32:47;8.00;99.90
5055;DHT22;13829;48.990;8.346;2024-01-30T10:35:15;8.00;99.90
5055;DHT22;13829;48.990;8.346;2024-01-30T10:37:43;8.10;99.90
5055;DHT22;13829;48.990;8.346;2024-01-30T10:40:14;8.10;99.90
5055;DHT22;13829;48.990;8.346;2024-01-30T10:42:44;8.20;99.90
5055;DHT22;13829;48.990;8.346;2024-01-30T10:45:13;8.30;99.90
5055;DHT22;13829;48.990;8.346;2024-01-30T10:47:44;8.30;99.90
5055;DHT22;13829;48.990;8.346;2024-01-30T10:50:15;8.30;99.90
5055;DHT22;13829;48.990;8.346;2024-01-30T10:52:43;8.40;99.90
5055;DHT22;13829;48.990;8.346;2024-01-30T10:55:11;8.60;99.90
5055;DHT22;13829;48.990;8.346;2024-01-30T10:57:39;8.50;99.90
5055;DHT22;13829;48.990;8.346;2024-01-30T11:00:08;8.60;99.90
5055;DHT22;13829;48.990;8.346;2024-01-30T11:02:38;8.70;99.90
5055;DHT22;13829;48.990;8.346;2024-01-30T11:05:08;8.60;99.90
5055;DHT22;13829;48.990;8.346;2024-01-30T11:07:35;8.50;99.90
5055;DHT22;13829;48.990;8.346;2024-01-30T11:10:03;8.50;99.90
5055;DHT22;13829;48.990;8.346;2024-01-30T11:12:33;8.60;99.90
5055;DHT22;13829;48.990;8.346;2024-01-30T11:15:09;8.60;99.90
5055;DHT22;13829;48.990;8.346;2024-01-30T11:17:44;8.70;99.90
5055;DHT22;13829;48.990;8.346;2024-01-30T11:20:19;8.70;99.90
5055;DHT22;13829;48.990;8.346;2024-01-30T11:22:47;8.90;99.90
5055;DHT22;13829;48.990;8.346;2024-01-30T11:25:17;8.80;99.90
5055;DHT22;13829;48.990;8.346;2024-01-30T11:27:46;8.80;99.90
5055;DHT22;13829;48.990;8.346;2024-01-30T11:30:23;8.80;99.90
5055;DHT22;13829;48.990;8.346;2024-01-30T11:33:01;8.80;99.90
5055;DHT22;13829;48.990;8.346;2024-01-30T11:35:32;8.80;99.90
5055;DHT22;13829;48.990;8.346;2024-01-30T11:38:00;8.80;99.90
5055;DHT22;13829;48.990;8.346;2024-01-30T11:40:29;8.90;99.90
5055;DHT22;13829;48.990;8.346;2024-01-30T11:42:58;9.00;99.90
5055;DHT22;13829;48.990;8.346;2024-01-30T11:45:28;9.00;99.90
5055;DHT22;13829;48.990;8.346;2024-01-30T11:47:56;9.10;99.90
5055;DHT22;13829;48.990;8.346;2024-01-30T11:50:25;9.20;99.90
5055;DHT22;13829;48.990;8.346;2024-01-30T11:52:54;9.30;99.90
5055;DHT22;13829;48.990;8.346;2024-01-30T11:55:21;9.50;99.90
5055;DHT22;13829;48.990;8.346;2024-01-30T11:57:50;9.50;99.90
5055;DHT22;13829;48.990;8.346;2024-01-30T12:00:18;9.60;99.90
5055;DHT22;13829;48.990;8.346;2024-01-30T12:02:50;9.70;99.90
5055;DHT22;13829;48.990;8.346;2024-01-30T12:05:21;9.70;99.90
5055;DHT22;13829;48.990;8.346;2024-01-30T12:07:48;9.80;99.90
5055;DHT22;13829;48.990;8.346;2024-01-30T12:10:16;9.80;99.90
5055;DHT22;13829;48.990;8.346;2024-01-30T12:12:46;9.80;99.90
5055;DHT22;13829;48.990;8.346;2024-01-30T12:15:16;9.90;99.90
5055;DHT22;13829;48.990;8.346;2024-01-30T12:17:43;10.00;99.90
5055;DHT22;13829;48.990;8.346;2024-01-30T12:20:13;10.00;99.90
5055;DHT22;13829;48.990;8.346;2024-01-30T12:22:42;10.00;99.90
5055;DHT22;13829;48.990;8.346;2024-01-30T12:25:10;10.00;99.90
5055;DHT22;13829;48.990;8.346;2024-01-30T12:27:39;10.10;99.90
5055;DHT22;13829;48.990;8.346;2024-01-30T12:30:10;10.00;99.90
5055;DHT22;13829;48.990;8.346;2024-01-30T12:32:40;10.10;99.90
5055;DHT22;13829;48.990;8.346;2024-01-30T12:35:09;10.20;99.90
5055;DHT22;13829;48.990;8.346;2024-01-30T12:37:38;10.20;99.90
5055;DHT22;13829;48.990;8.346;2024-01-30T12:40:07;10.30;99.90
5055;DHT22;13829;48.990;8.346;2024-01-30T12:42:35;10.30;99.90
5055;DHT22;13829;48.990;8.346;2024-01-30T12:45:02;10.30;99.90
5055;DHT22;13829;48.990;8.346;2024-01-30T12:47:30;10.30;99.90
5055;DHT22;13829;48.990;8.346;2024-01-30T12:49:58;10.40;99.90
5055;DHT22;13829;48.990;8.346;2024-01-30T12:52:26;10.40;99.90
5055;DHT22;13829;48.990;8.346;2024-01-30T12:54:53;10.50;99.90
5055;DHT22;13829;48.990;8.346;2024-01-30T12:57:21;10.50;99.90
5055;DHT22;13829;48.990;8.346;2024-01-30T12:59:48;10.60;99.90
5055;DHT22;13829;48.990;8.346;2024-01-30T13:02:15;10.70;99.90
5055;DHT22;13829;48.990;8.346;2024-01-30T13:04:43;10.60;99.90
5055;DHT22;13829;48.990;8.346;2024-01-30T13:07:10;10.50;99.90
5055;DHT22;13829;48.990;8.346;2024-01-30T13:09:38;10.50;99.90
5055;DHT22;13829;48.990;8.346;2024-01-30T13:12:05;10.60;99.90
5055;DHT22;13829;48.990;8.346;2024-01-30T13:14:33;10.70;99.90
5055;DHT22;13829;48.990;8.346;2024-01-30T13:17:00;10.80;99.90
5055;DHT22;13829;48.990;8.346;2024-01-30T13:19:27;10.80;99.90
5055;DHT22;13829;48.990;8.346;2024-01-30T13:21:54;10.80;99.90
5055;DHT22;13829;48.990;8.346;2024-01-30T13:24:21;10.70;99.90
5055;DHT22;13829;48.990;8.346;2024-01-30T13:26:49;10.70;99.90
5055;DHT22;13829;48.990;8.346;2024-01-30T13:29:16;10.60;99.90
5055;DHT22;13829;48.990;8.346;2024-01-30T13:31:44;10.60;99.90
5055;DHT22;13829;48.990;8.346;2024-01-30T13:34:12;10.70;99.90
5055;DHT22;13829;48.990;8.346;2024-01-30T13:36:40;10.60;99.90
5055;DHT22;13829;48.990;8.346;2024-01-30T13:39:07;10.60;99.90
5055;DHT22;13829;48.990;8.346;2024-01-30T13:41:37;10.70;99.90
5055;DHT22;13829;48.990;8.346;2024-01-30T13:44:06;10.70;99.90
5055;DHT22;13829;48.990;8.346;2024-01-30T13:46:33;10.80;99.90
5055;DHT22;13829;48.990;8.346;2024-01-30T13:49:01;10.80;99.90
5055;DHT22;13829;48.990;8.346;2024-01-30T13:51:28;10.90;99.90
5055;DHT22;13829;48.990;8.346;2024-01-30T13:53:55;11.00;99.90
5055;DHT22;13829;48.990;8.346;2024-01-30T13:56:22;11.10;99.90
5055;DHT22;13829;48.990;8.346;2024-01-30T13:58:50;11.10;99.90
5055;DHT22;13829;48.990;8.346;2024-01-30T14:01:18;11.20;99.90
5055;DHT22;13829;48.990;8.346;2024-01-30T14:03:45;11.20;99.90
5055;DHT22;13829;48.990;8.346;2024-01-30T14:06:12;11.20;99.90
5055;DHT22;13829;48.990;8.346;2024-01-30T14:08:40;11.30;99.90
5055;DHT22;13829;48.990;8.346;2024-01-30T14:11:07;11.30;99.90
5055;DHT22;13829;48.990;8.346;2024-01-30T14:13:33;11.30;99.90
5055;DHT22;13829;48.990;8.346;2024-01-30T14:16:01;11.20;99.90
5055;DHT22;13829;48.990;8.346;2024-01-30T14:18:29;11.20;99.90
5055;DHT22;13829;48.990;8.346;2024-01-30T14:20:56;11.20;99.90
5055;DHT22;13829;48.990;8.346;2024-01-30T14:23:23;11.10;99.90
5055;DHT22;13829;48.990;8.346;2024-01-30T14:25:50;11.20;99.90
5055;DHT22;13829;48.990;8.346;2024-01-30T14:28:18;11.20;99.90
5055;DHT22;13829;48.990;8.346;2024-01-30T14:30:45;11.20;99.90
5055;DHT22;13829;48.990;8.346;2024-01-30T14:33:12;11.10;99.90
5055;DHT22;13829;48.990;8.346;2024-01-30T14:35:41;11.00;99.90
5055;DHT22;13829;48.990;8.346;2024-01-30T14:38:08;10.90;99.90
5055;DHT22;13829;48.990;8.346;2024-01-30T14:40:35;10.90;99.90
5055;DHT22;13829;48.990;8.346;2024-01-30T14:43:04;10.90;99.90
5055;DHT22;13829;48.990;8.346;2024-01-30T14:45:31;10.90;99.90
5055;DHT22;13829;48.990;8.346;2024-01-30T14:47:58;10.90;99.90
5055;DHT22;13829;48.990;8.346;2024-01-30T14:50:26;10.90;99.90
5055;DHT22;13829;48.990;8.346;2024-01-30T14:52:55;10.90;99.90
5055;DHT22;13829;48.990;8.346;2024-01-30T14:55:22;10.80;99.90
5055;DHT22;13829;48.990;8.346;2024-01-30T14:57:49;10.70;99.90
5055;DHT22;13829;48.990;8.346;2024-01-30T15:00:17;10.70;99.90
5055;DHT22;13829;48.990;8.346;2024-01-30T15:02:44;10.60;99.90
5055;DHT22;13829;48.990;8.346;2024-01-30T15:05:12;10.50;99.90
5055;DHT22;13829;48.990;8.346;2024-01-30T15:07:39;10.50;99.90
5055;DHT22;13829;48.990;8.346;2024-01-30T15:10:08;10.50;99.90
5055;DHT22;13829;48.990;8.346;2024-01-30T15:12:36;10.50;99.90
5055;DHT22;13829;48.990;8.346;2024-01-30T15:15:04;10.40;99.90
5055;DHT22;13829;48.990;8.346;2024-01-30T15:17:33;10.30;99.90
5055;DHT22;13829;48.990;8.346;2024-01-30T15:20:00;10.30;99.90
5055;DHT22;13829;48.990;8.346;2024-01-30T15:22:28;10.30;99.90
5055;DHT22;13829;48.990;8.346;2024-01-30T15:24:55;10.20;99.90
5055;DHT22;13829;48.990;8.346;2024-01-30T15:27:23;10.10;99.90
5055;DHT22;13829;48.990;8.346;2024-01-30T15:29:50;10.10;99.90
5055;DHT22;13829;48.990;8.346;2024-01-30T15:32:17;10.00;99.90
5055;DHT22;13829;48.990;8.346;2024-01-30T15:34:44;10.00;99.90
5055;DHT22;13829;48.990;8.346;2024-01-30T15:37:11;10.00;99.90
5055;DHT22;13829;48.990;8.346;2024-01-30T15:39:38;9.90;99.90
5055;DHT22;13829;48.990;8.346;2024-01-30T15:42:05;9.80;99.90
5055;DHT22;13829;48.990;8.346;2024-01-30T15:44:34;9.80;99.90
5055;DHT22;13829;48.990;8.346;2024-01-30T15:47:01;9.70;99.90
5055;DHT22;13829;48.990;8.346;2024-01-30T15:49:28;9.70;99.90
5055;DHT22;13829;48.990;8.346;2024-01-30T15:51:54;9.70;99.90
5055;DHT22;13829;48.990;8.346;2024-01-30T15:54:21;9.70;99.90
5055;DHT22;13829;48.990;8.346;2024-01-30T15:56:48;9.70;99.90
5055;DHT22;13829;48.990;8.346;2024-01-30T15:59:15;9.60;99.90